Time;durP1;ratioP1;P1;durP2;ratioP2;P2;SDS_P1;SDS_P2;PMS_P1;PMS_P2;Temp;Humidity;BMP_temperature;BMP_pressure;BME280_temperature;BME280_humidity;BME280_pressure;Samples;Min_cycle;Max_cycle;Signal;HPM_P1;HPM_P2
2021/03/06 00:00:12;;;;;;;19.85;12.13;;;6.60;99.90;;;;;;4987179;28;20136;-71
2021/03/06 00:02:38;;;;;;;19.20;11.88;;;6.50;99.90;;;;;;4970395;28;20037;-72
2021/03/06 00:05:05;;;;;;;18.88;10.73;;;6.50;99.90;;;;;;4987571;28;20061;-72
2021/03/06 00:07:31;;;;;;;20.77;12.35;;;6.40;99.90;;;;;;4988084;28;20065;-72
2021/03/06 00:09:57;;;;;;;16.85;12.60;;;6.40;99.90;;;;;;4986840;28;20054;-71
2021/03/06 00:12:22;;;;;;;16.73;11.00;;;6.30;99.90;;;;;;4988711;28;20026;-73
2021/03/06 00:14:48;;;;;;;20.10;12.63;;;6.20;99.90;;;;;;4987293;28;20026;-71
2021/03/06 00:17:14;;;;;;;19.15;11.50;;;6.20;99.90;;;;;;4988567;28;20031;-72
2021/03/06 00:19:39;;;;;;;18.40;11.25;;;6.20;99.90;;;;;;4987332;28;20030;-72
2021/03/06 00:22:05;;;;;;;20.17;11.80;;;6.20;99.90;;;;;;4987507;28;20042;-72
2021/03/06 00:24:31;;;;;;;19.83;11.07;;;6.20;99.90;;;;;;4987221;28;20062;-72
2021/03/06 00:26:57;;;;;;;19.83;11.80;;;6.20;99.90;;;;;;4986974;28;20129;-72
2021/03/06 00:29:23;;;;;;;21.25;12.55;;;6.10;99.90;;;;;;4987065;28;20022;-72
2021/03/06 00:31:49;;;;;;;18.35;12.05;;;6.00;99.90;;;;;;4987078;28;20049;-72
2021/03/06 00:34:14;;;;;;;19.20;11.95;;;6.00;99.90;;;;;;4986998;28;20034;-72
2021/03/06 00:36:40;;;;;;;19.35;12.65;;;6.00;99.90;;;;;;4986920;28;20725;-72
2021/03/06 00:39:07;;;;;;;16.73;10.57;;;6.00;99.90;;;;;;4987004;28;20030;-72
2021/03/06 00:41:33;;;;;;;18.20;10.43;;;6.00;99.90;;;;;;4986252;28;20520;-71
2021/03/06 00:44:00;;;;;;;17.35;11.18;;;6.00;99.90;;;;;;4987299;28;20179;-72
2021/03/06 00:46:26;;;;;;;18.70;12.80;;;6.10;99.90;;;;;;4986388;28;20030;-72
2021/03/06 00:48:52;;;;;;;18.35;11.73;;;6.10;99.90;;;;;;4986791;28;20764;-72
2021/03/06 00:51:18;;;;;;;17.52;11.10;;;6.00;99.90;;;;;;4986213;28;20041;-72
2021/03/06 00:53:44;;;;;;;16.73;10.88;;;6.00;99.90;;;;;;4986530;28;20037;-71
2021/03/06 00:56:10;;;;;;;17.10;11.43;;;6.10;99.90;;;;;;4986856;28;20080;-72
2021/03/06 00:58:36;;;;;;;19.33;12.93;;;6.00;99.90;;;;;;4985286;28;20041;-72
2021/03/06 01:01:05;;;;;;;21.85;13.32;;;5.90;99.90;;;;;;4986940;28;20042;-73
2021/03/06 01:03:30;;;;;;;18.17;12.65;;;5.90;99.90;;;;;;4986287;28;20038;-72
2021/03/06 01:05:56;;;;;;;18.10;12.63;;;6.00;99.90;;;;;;4986914;28;20093;-72
2021/03/06 01:08:21;;;;;;;18.77;12.82;;;6.00;99.90;;;;;;4986266;28;20045;-72
2021/03/06 01:10:47;;;;;;;19.80;12.65;;;6.00;99.90;;;;;;4986916;28;20030;-72
2021/03/06 01:13:13;;;;;;;18.52;11.80;;;6.00;99.90;;;;;;4986432;28;20034;-71
2021/03/06 01:15:39;;;;;;;19.33;12.77;;;6.00;99.90;;;;;;4969751;28;20246;-72
2021/03/06 01:18:06;;;;;;;19.85;13.63;;;6.00;99.90;;;;;;4986284;28;20038;-72
2021/03/06 01:20:33;;;;;;;17.92;12.77;;;5.90;99.90;;;;;;4986882;28;20082;-72
2021/03/06 01:22:59;;;;;;;19.92;11.65;;;5.90;99.90;;;;;;4986752;28;20129;-72
2021/03/06 01:25:24;;;;;;;20.08;13.35;;;5.90;99.90;;;;;;4985959;28;20031;-72
2021/03/06 01:27:50;;;;;;;20.42;12.18;;;5.80;99.90;;;;;;4986979;28;20031;-72
2021/03/06 01:30:17;;;;;;;17.38;11.70;;;5.90;99.90;;;;;;4986063;28;20031;-72
2021/03/06 01:32:43;;;;;;;18.23;11.30;;;5.90;99.90;;;;;;4986598;28;20031;-72
2021/03/06 01:35:10;;;;;;;17.80;10.98;;;5.90;99.90;;;;;;4985707;28;20096;-72
2021/03/06 01:37:37;;;;;;;20.50;13.77;;;5.90;99.90;;;;;;4985821;28;20034;-72
2021/03/06 01:40:12;;;;;;;22.40;13.18;;;5.80;99.90;;;;;;4986183;28;20142;-72
2021/03/06 01:42:38;;;;;;;19.60;12.38;;;5.80;99.90;;;;;;4985858;28;20035;-72
2021/03/06 01:45:05;;;;;;;18.55;11.77;;;5.80;99.90;;;;;;4986649;28;20113;-72
2021/03/06 01:47:32;;;;;;;20.05;12.43;;;5.90;99.90;;;;;;4976249;28;20565;-72
2021/03/06 01:49:57;;;;;;;17.40;11.32;;;5.90;99.90;;;;;;4967341;28;20035;-72
2021/03/06 01:52:23;;;;;;;20.05;13.20;;;5.60;99.90;;;;;;4973543;28;20076;-71
2021/03/06 01:54:50;;;;;;;18.02;11.25;;;5.80;99.90;;;;;;4986332;28;20742;-72
2021/03/06 01:57:16;;;;;;;19.02;12.50;;;5.70;99.90;;;;;;4986017;28;20113;-72
2021/03/06 01:59:42;;;;;;;18.02;11.65;;;5.70;99.90;;;;;;4986711;28;20026;-72
2021/03/06 02:02:07;;;;;;;18.30;12.07;;;5.70;99.90;;;;;;4988971;28;20041;-72
2021/03/06 02:04:36;;;;;;;21.05;13.02;;;5.80;99.90;;;;;;4989286;28;20037;-72
2021/03/06 02:07:02;;;;;;;19.90;12.93;;;5.70;99.90;;;;;;4990162;28;20048;-72
2021/03/06 02:09:29;;;;;;;20.67;12.57;;;5.70;99.90;;;;;;4989462;28;20027;-72
2021/03/06 02:12:16;;;;;;;21.52;13.90;;;5.70;99.90;;;;;;5005141;28;20552;-72
2021/03/06 02:15:11;;;;;;;20.42;13.43;;;5.60;99.90;;;;;;4989377;28;20022;-72
2021/03/06 02:18:01;;;;;;;16.95;11.50;;;5.70;99.90;;;;;;4990051;28;20046;-72
2021/03/06 02:21:04;;;;;;;23.10;13.30;;;5.60;99.90;;;;;;4990315;28;20038;-72
2021/03/06 02:23:57;;;;;;;20.35;12.65;;;5.60;99.90;;;;;;4989129;28;20488;-71
2021/03/06 02:26:29;;;;;;;21.15;13.25;;;5.60;99.90;;;;;;4990250;28;20042;-72
2021/03/06 02:29:01;;;;;;;18.13;12.98;;;5.50;99.90;;;;;;4988891;28;20082;-72
2021/03/06 02:31:30;;;;;;;22.00;12.03;;;5.50;99.90;;;;;;4989474;28;20038;-72
2021/03/06 02:34:12;;;;;;;22.05;14.30;;;5.50;99.90;;;;;;4988174;28;20779;-72
2021/03/06 02:36:41;;;;;;;22.85;13.60;;;5.40;99.90;;;;;;4989297;28;20085;-73
2021/03/06 02:39:13;;;;;;;19.98;13.00;;;5.50;99.90;;;;;;4984008;28;20030;-71
2021/03/06 02:41:42;;;;;;;20.30;13.38;;;5.50;99.90;;;;;;4970753;28;20050;-72
2021/03/06 02:44:11;;;;;;;24.27;14.63;;;5.40;99.90;;;;;;4969241;28;20472;-72
2021/03/06 02:46:38;;;;;;;22.20;12.95;;;5.40;99.90;;;;;;4969915;28;20053;-71
2021/03/06 02:49:04;;;;;;;20.33;13.13;;;5.40;99.90;;;;;;4969393;28;20027;-73
2021/03/06 02:51:40;;;;;;;20.33;13.32;;;5.40;99.90;;;;;;4969966;28;20047;-72
2021/03/06 02:54:07;;;;;;;20.35;12.88;;;5.40;99.90;;;;;;4969062;28;20035;-72
2021/03/06 02:56:34;;;;;;;21.17;13.95;;;5.40;99.90;;;;;;4969562;28;20038;-72
2021/03/06 02:59:21;;;;;;;21.92;13.02;;;5.40;99.90;;;;;;4969516;28;20118;-72
2021/03/06 03:01:58;;;;;;;21.23;12.43;;;5.40;99.90;;;;;;4950524;29;20039;-72
2021/03/06 03:04:36;;;;;;;21.02;13.70;;;5.50;99.90;;;;;;4950226;29;20042;-71
2021/03/06 03:07:09;;;;;;;23.42;13.15;;;5.40;99.90;;;;;;4950313;29;20114;-73
2021/03/06 03:09:39;;;;;;;18.55;12.50;;;5.40;99.90;;;;;;4950181;29;20038;-72
2021/03/06 03:12:23;;;;;;;20.58;13.63;;;5.50;99.90;;;;;;4968388;28;20504;-72
2021/03/06 03:15:01;;;;;;;18.48;12.23;;;5.40;99.90;;;;;;4969086;28;20027;-72
2021/03/06 03:17:34;;;;;;;22.63;13.48;;;5.40;99.90;;;;;;4969038;28;20177;-72
2021/03/06 03:20:06;;;;;;;21.90;13.57;;;5.30;99.90;;;;;;4969199;28;20046;-72
2021/03/06 03:22:37;;;;;;;21.42;13.27;;;5.40;99.90;;;;;;4970063;28;20049;-72
2021/03/06 03:25:06;;;;;;;23.45;13.80;;;5.50;99.90;;;;;;4969384;28;20045;-72
2021/03/06 03:27:34;;;;;;;23.27;13.80;;;5.40;99.90;;;;;;4969316;28;20105;-72
2021/03/06 03:30:01;;;;;;;20.02;13.75;;;5.50;99.90;;;;;;4969379;28;20027;-72
2021/03/06 03:32:28;;;;;;;18.73;12.80;;;5.50;99.90;;;;;;4984234;28;20037;-72
2021/03/06 03:34:56;;;;;;;20.40;13.05;;;5.50;99.90;;;;;;4987874;28;20022;-72
2021/03/06 03:37:22;;;;;;;19.55;12.68;;;5.60;99.90;;;;;;4973680;28;20535;-72
2021/03/06 03:39:49;;;;;;;19.52;12.20;;;5.50;99.90;;;;;;4968918;28;20051;-72
2021/03/06 03:42:16;;;;;;;22.50;12.15;;;5.50;99.90;;;;;;4967008;28;20027;-72
2021/03/06 03:44:42;;;;;;;18.30;10.70;;;5.50;99.90;;;;;;4969566;28;20034;-72
2021/03/06 03:47:09;;;;;;;19.30;11.48;;;5.50;99.90;;;;;;4969503;28;20406;-72
2021/03/06 03:49:34;;;;;;;22.75;14.15;;;5.50;99.90;;;;;;4969180;28;20038;-72
2021/03/06 03:52:00;;;;;;;19.70;12.38;;;5.60;99.90;;;;;;4969535;28;20042;-72
2021/03/06 03:54:26;;;;;;;20.10;12.93;;;5.60;99.90;;;;;;4974358;28;20031;-72
2021/03/06 03:56:52;;;;;;;19.05;12.23;;;5.50;99.90;;;;;;4969637;28;20031;-72
2021/03/06 03:59:18;;;;;;;18.77;12.45;;;5.50;99.90;;;;;;4968898;28;20038;-72
2021/03/06 04:01:45;;;;;;;20.70;13.02;;;5.50;99.90;;;;;;4969319;28;20221;-72
2021/03/06 04:04:28;;;;;;;21.95;12.98;;;5.60;99.90;;;;;;4967327;28;20078;-72
2021/03/06 04:06:59;;;;;;;17.98;10.93;;;5.50;99.90;;;;;;4964860;28;20046;-72
2021/03/06 04:09:25;;;;;;;19.25;11.90;;;5.50;99.90;;;;;;4968969;28;20026;-72
2021/03/06 04:11:51;;;;;;;21.50;12.82;;;5.50;99.90;;;;;;4969125;28;20070;-71
2021/03/06 04:14:17;;;;;;;19.55;13.52;;;5.60;99.90;;;;;;4968351;28;20414;-72
2021/03/06 04:16:44;;;;;;;19.70;12.15;;;5.60;99.90;;;;;;4971983;28;20042;-72
2021/03/06 04:19:10;;;;;;;19.75;12.60;;;5.50;99.90;;;;;;4980711;28;20045;-72
2021/03/06 04:21:35;;;;;;;20.05;13.48;;;5.60;99.90;;;;;;4968723;28;20039;-72
2021/03/06 04:24:01;;;;;;;19.13;12.60;;;5.60;99.90;;;;;;4967994;28;20061;-72
2021/03/06 04:26:27;;;;;;;19.75;12.68;;;5.70;99.90;;;;;;4975209;28;20142;-72
2021/03/06 04:28:53;;;;;;;19.48;12.23;;;5.70;99.90;;;;;;4988430;28;20042;-72
2021/03/06 04:31:18;;;;;;;20.02;11.93;;;5.70;99.90;;;;;;4973975;28;20034;-72
2021/03/06 04:33:44;;;;;;;18.33;11.77;;;5.70;99.90;;;;;;4971463;28;20077;-73
2021/03/06 04:36:11;;;;;;;19.23;12.98;;;5.70;99.90;;;;;;4980415;28;20418;-72
2021/03/06 04:38:37;;;;;;;17.70;10.82;;;5.70;99.90;;;;;;4987680;28;20042;-72
2021/03/06 04:41:02;;;;;;;20.20;11.77;;;5.80;99.90;;;;;;4987028;28;20081;-72
2021/03/06 04:43:28;;;;;;;19.98;11.10;;;5.70;99.90;;;;;;4987455;28;20042;-72
2021/03/06 04:45:53;;;;;;;21.80;11.93;;;5.60;99.90;;;;;;4987244;28;20445;-72
2021/03/06 04:48:19;;;;;;;18.85;11.95;;;5.60;99.90;;;;;;4988065;28;20399;-72
2021/03/06 04:50:45;;;;;;;18.98;12.80;;;5.60;99.90;;;;;;4986925;28;20018;-72
2021/03/06 04:53:11;;;;;;;18.88;11.60;;;5.70;99.90;;;;;;4987446;28;20122;-72
2021/03/06 04:55:37;;;;;;;18.90;12.50;;;5.50;99.90;;;;;;4986585;28;20109;-72
2021/03/06 04:58:02;;;;;;;21.58;11.88;;;5.50;99.90;;;;;;4987106;28;20085;-72
2021/03/06 05:00:28;;;;;;;18.85;10.95;;;5.50;99.90;;;;;;4987668;28;20034;-72
2021/03/06 05:02:55;;;;;;;19.42;11.90;;;5.40;99.90;;;;;;4987599;28;20093;-71
2021/03/06 05:05:21;;;;;;;17.77;10.60;;;5.50;99.90;;;;;;4987398;28;20050;-72
2021/03/06 05:07:46;;;;;;;17.80;11.35;;;5.40;99.90;;;;;;4986958;28;20475;-71
2021/03/06 05:10:12;;;;;;;18.95;11.85;;;5.40;99.90;;;;;;4986373;28;20038;-72
2021/03/06 05:12:38;;;;;;;17.67;12.10;;;5.50;99.90;;;;;;4987209;28;20042;-72
2021/03/06 05:15:05;;;;;;;17.75;11.23;;;5.50;99.90;;;;;;4986443;28;20045;-72
2021/03/06 05:17:31;;;;;;;19.50;12.48;;;5.40;99.90;;;;;;4987867;28;20031;-72
2021/03/06 05:19:58;;;;;;;19.33;12.05;;;5.40;99.90;;;;;;4986838;28;20042;-72
2021/03/06 05:22:24;;;;;;;17.90;10.65;;;5.40;99.90;;;;;;4987692;28;20034;-72
2021/03/06 05:24:49;;;;;;;19.85;12.15;;;5.40;99.90;;;;;;4987085;28;20046;-72
2021/03/06 05:27:16;;;;;;;17.58;11.57;;;5.50;99.90;;;;;;4985938;28;20097;-72
2021/03/06 05:29:41;;;;;;;17.88;12.02;;;5.40;99.90;;;;;;4987433;28;20373;-73
2021/03/06 05:32:08;;;;;;;17.70;11.50;;;5.30;99.90;;;;;;4987700;28;20042;-71
2021/03/06 05:34:34;;;;;;;20.70;11.65;;;5.40;99.90;;;;;;4988737;28;20031;-72
2021/03/06 05:37:00;;;;;;;18.83;11.40;;;5.40;99.90;;;;;;4990253;28;20409;-72
2021/03/06 05:39:25;;;;;;;20.02;11.77;;;5.30;99.90;;;;;;4991067;28;20042;-72
2021/03/06 05:41:52;;;;;;;19.85;12.00;;;5.30;99.90;;;;;;4990144;28;20030;-71
2021/03/06 05:44:18;;;;;;;20.48;12.85;;;5.30;99.90;;;;;;4991073;28;20556;-72
2021/03/06 05:46:44;;;;;;;21.23;12.68;;;5.30;99.90;;;;;;4990218;28;20129;-72
2021/03/06 05:49:12;;;;;;;19.60;12.82;;;5.30;99.90;;;;;;4991570;28;20073;-72
2021/03/06 05:51:38;;;;;;;20.95;12.25;;;5.30;99.90;;;;;;4990144;28;20030;-72
2021/03/06 05:54:11;;;;;;;19.65;12.93;;;5.20;99.90;;;;;;4991122;28;20530;-71
2021/03/06 05:56:40;;;;;;;19.92;12.75;;;5.30;99.90;;;;;;4990026;28;20105;-73
2021/03/06 05:59:11;;;;;;;22.40;14.00;;;5.30;99.90;;;;;;4989910;28;20061;-72
2021/03/06 06:01:38;;;;;;;20.13;13.33;;;5.20;99.90;;;;;;4990027;28;20026;-72
2021/03/06 06:04:05;;;;;;;17.33;11.57;;;5.20;99.90;;;;;;4989555;28;20043;-72
2021/03/06 06:06:32;;;;;;;18.30;11.48;;;5.20;99.90;;;;;;4990887;28;20027;-72
2021/03/06 06:08:59;;;;;;;23.67;13.07;;;5.20;99.90;;;;;;4989733;28;20034;-72
2021/03/06 06:11:27;;;;;;;21.55;12.75;;;5.10;99.90;;;;;;4985483;28;20053;-72
2021/03/06 06:13:56;;;;;;;20.35;12.65;;;5.10;99.90;;;;;;4987003;28;20045;-73
2021/03/06 06:16:22;;;;;;;20.38;11.05;;;5.10;99.90;;;;;;4988751;28;20166;-72
2021/03/06 06:18:49;;;;;;;20.42;13.13;;;5.00;99.90;;;;;;4988698;28;20038;-71
2021/03/06 06:21:38;;;;;;;18.58;11.55;;;5.10;99.90;;;;;;4988840;28;20129;-72
2021/03/06 06:24:09;;;;;;;17.85;11.52;;;5.00;99.90;;;;;;4988538;28;20037;-72
2021/03/06 06:26:36;;;;;;;20.20;12.75;;;5.10;99.90;;;;;;4989863;28;20081;-72
2021/03/06 06:29:01;;;;;;;21.40;12.52;;;5.10;99.90;;;;;;4988551;28;20034;-72
2021/03/06 06:31:27;;;;;;;19.50;12.32;;;5.10;99.90;;;;;;4983298;28;20043;-73
2021/03/06 06:33:53;;;;;;;20.63;11.68;;;5.10;99.90;;;;;;4984257;28;20046;-72
2021/03/06 06:36:39;;;;;;;20.13;12.95;;;5.10;99.90;;;;;;4988141;28;20054;-72
2021/03/06 06:39:09;;;;;;;18.13;12.25;;;5.10;99.90;;;;;;4987225;28;20433;-73
2021/03/06 06:41:55;;;;;;;19.60;12.27;;;5.10;99.90;;;;;;4985088;28;20066;-72
2021/03/06 06:44:23;;;;;;;19.92;12.20;;;5.10;99.90;;;;;;4987841;28;20097;-72
2021/03/06 06:46:50;;;;;;;20.00;12.23;;;5.10;99.90;;;;;;4986225;28;20026;-72
2021/03/06 06:49:16;;;;;;;19.80;13.35;;;5.10;99.90;;;;;;4984580;28;20028;-72
2021/03/06 06:52:03;;;;;;;22.45;12.43;;;5.10;99.90;;;;;;4987648;28;20041;-73
2021/03/06 06:54:30;;;;;;;19.52;12.07;;;5.20;99.90;;;;;;4986535;28;20034;-72
2021/03/06 06:57:11;;;;;;;18.67;11.18;;;5.10;99.90;;;;;;4988334;28;20045;-72
2021/03/06 07:00:01;;;;;;;22.48;11.70;;;5.20;99.90;;;;;;4982000;28;20414;-72
2021/03/06 07:02:27;;;;;;;19.70;12.77;;;5.10;99.90;;;;;;4985368;28;20122;-72
2021/03/06 07:04:54;;;;;;;19.90;12.60;;;5.20;99.90;;;;;;4984911;28;20058;-71
2021/03/06 07:07:23;;;;;;;18.27;12.40;;;5.20;99.90;;;;;;4988592;28;20042;-71
2021/03/06 07:09:59;;;;;;;21.83;11.82;;;5.10;99.90;;;;;;4986858;28;20026;-73
2021/03/06 07:12:27;;;;;;;18.30;12.18;;;5.20;99.90;;;;;;4988217;28;20480;-72
2021/03/06 07:14:52;;;;;;;18.00;11.65;;;5.10;99.90;;;;;;4987965;28;20038;-72
2021/03/06 07:17:18;;;;;;;18.10;11.65;;;5.10;99.90;;;;;;4984956;28;20074;-72
2021/03/06 07:19:44;;;;;;;21.90;12.85;;;5.20;99.90;;;;;;4986642;28;20527;-72
2021/03/06 07:22:12;;;;;;;22.33;11.85;;;5.20;99.90;;;;;;4988545;28;20034;-72
2021/03/06 07:24:38;;;;;;;17.10;11.82;;;5.30;99.90;;;;;;4987616;28;20393;-72
2021/03/06 07:27:04;;;;;;;18.17;11.13;;;5.30;99.90;;;;;;4984689;28;20039;-72
2021/03/06 07:29:30;;;;;;;17.55;11.27;;;5.30;99.90;;;;;;4986061;28;20026;-72
2021/03/06 07:31:59;;;;;;;19.60;12.85;;;5.30;99.90;;;;;;4986642;28;20367;-72
2021/03/06 07:34:27;;;;;;;19.35;11.38;;;5.30;99.90;;;;;;4986686;28;20054;-72
2021/03/06 07:37:04;;;;;;;17.08;10.57;;;5.40;99.90;;;;;;4964721;28;20058;-72
2021/03/06 07:39:42;;;;;;;19.05;11.68;;;5.40;99.90;;;;;;4963279;28;20134;-72
2021/03/06 07:42:15;;;;;;;23.73;11.43;;;5.40;99.90;;;;;;4964734;28;20035;-71
2021/03/06 07:44:42;;;;;;;;;;;5.40;99.90;;;;;;4968789;28;20841;-72
2021/03/06 07:47:10;;;;;;;16.58;10.68;;;5.40;99.90;;;;;;4967936;28;19925;-72
2021/03/06 07:49:36;;;;;;;19.90;11.02;;;5.40;99.90;;;;;;4967905;28;20015;-72
2021/03/06 07:52:02;;;;;;;21.42;11.25;;;5.50;99.90;;;;;;4966394;28;20070;-72
2021/03/06 07:54:31;;;;;;;19.85;12.43;;;5.50;99.90;;;;;;4966807;28;20081;-72
2021/03/06 07:56:58;;;;;;;15.70;11.40;;;5.50;99.90;;;;;;4964840;28;20038;-72
2021/03/06 07:59:47;;;;;;;20.75;12.15;;;5.50;99.90;;;;;;4967731;28;20042;-72
2021/03/06 08:02:33;;;;;;;16.83;11.02;;;5.60;99.90;;;;;;4962634;28;20046;-72
2021/03/06 08:04:59;;;;;;;19.88;10.70;;;5.60;99.90;;;;;;4965866;28;20046;-72
2021/03/06 08:07:40;;;;;;;20.48;11.68;;;5.60;99.90;;;;;;4967019;28;20034;-72
2021/03/06 08:10:08;;;;;;;19.90;11.57;;;5.60;99.90;;;;;;4964770;28;20062;-73
2021/03/06 08:12:37;;;;;;;18.60;12.15;;;5.60;99.90;;;;;;4966689;28;20094;-72
2021/03/06 08:15:28;;;;;;;18.10;11.43;;;5.60;99.90;;;;;;4967007;28;20085;-72
2021/03/06 08:17:58;;;;;;;17.70;12.07;;;5.60;99.90;;;;;;4966257;28;20039;-72
2021/03/06 08:20:26;;;;;;;22.00;12.85;;;5.70;99.90;;;;;;4980901;28;20041;-72
2021/03/06 08:23:18;;;;;;;20.88;12.10;;;5.70;99.90;;;;;;4967825;28;20391;-73
2021/03/06 08:25:44;;;;;;;21.80;12.13;;;5.80;99.90;;;;;;4966053;28;20485;-72
2021/03/06 08:28:21;;;;;;;17.85;12.00;;;5.90;99.90;;;;;;4968456;28;20054;-72
2021/03/06 08:30:46;;;;;;;19.50;11.88;;;5.90;99.90;;;;;;4963549;28;20509;-72
2021/03/06 08:33:16;;;;;;;18.08;10.50;;;6.10;99.90;;;;;;4967967;28;20038;-73
2021/03/06 08:35:42;;;;;;;17.88;11.38;;;6.10;99.90;;;;;;4973924;28;20053;-72
2021/03/06 08:38:31;;;;;;;21.02;10.38;;;6.10;99.90;;;;;;4984093;28;20042;-72
2021/03/06 08:40:58;;;;;;;17.63;12.15;;;5.90;99.90;;;;;;4977673;28;20034;-72
2021/03/06 08:43:24;;;;;;;17.63;11.55;;;6.10;99.90;;;;;;4980950;28;20498;-73
2021/03/06 08:45:50;;;;;;;21.85;12.88;;;6.00;99.90;;;;;;4985790;28;20030;-73
2021/03/06 08:48:20;;;;;;;18.02;12.10;;;6.00;99.90;;;;;;4986938;28;20394;-72
2021/03/06 08:50:46;;;;;;;21.52;12.32;;;5.90;99.90;;;;;;4985669;28;20026;-73
2021/03/06 08:53:14;;;;;;;19.77;12.55;;;6.00;99.90;;;;;;4983466;28;20500;-73
2021/03/06 08:55:42;;;;;;;18.50;12.80;;;5.90;99.90;;;;;;4987325;28;20038;-72
2021/03/06 08:58:13;;;;;;;16.38;11.85;;;6.10;99.90;;;;;;4985329;28;20045;-73
2021/03/06 09:00:44;;;;;;;18.02;11.88;;;6.10;99.90;;;;;;4981326;28;20469;-72
2021/03/06 09:03:19;;;;;;;17.35;11.27;;;6.20;99.90;;;;;;4985366;28;20038;-72
2021/03/06 09:05:48;;;;;;;19.77;11.90;;;6.30;99.90;;;;;;4984577;28;20034;-72
2021/03/06 09:08:19;;;;;;;17.40;12.57;;;6.30;99.90;;;;;;4986841;28;20073;-72
2021/03/06 09:10:45;;;;;;;16.80;11.88;;;6.30;99.90;;;;;;4990997;28;20022;-73
2021/03/06 09:13:18;;;;;;;18.05;12.77;;;6.40;99.90;;;;;;4992543;28;20042;-73
2021/03/06 09:15:46;;;;;;;20.35;12.65;;;6.50;99.90;;;;;;4992754;28;20030;-72
2021/03/06 09:18:22;;;;;;;17.25;11.15;;;6.60;99.90;;;;;;4993633;28;20050;-72
2021/03/06 09:21:03;;;;;;;19.33;11.82;;;6.60;99.90;;;;;;4990779;28;20105;-73
2021/03/06 09:23:40;;;;;;;19.92;12.30;;;6.50;99.90;;;;;;4991610;28;20527;-73
2021/03/06 09:26:18;;;;;;;21.00;12.55;;;6.50;99.90;;;;;;4989830;28;20041;-72
2021/03/06 09:28:45;;;;;;;22.27;12.18;;;6.70;99.90;;;;;;4992572;28;20026;-73
2021/03/06 09:31:24;;;;;;;17.70;11.35;;;6.90;99.90;;;;;;4989693;28;20034;-72
2021/03/06 09:33:50;;;;;;;17.60;11.32;;;6.90;99.90;;;;;;4986340;28;20077;-72
2021/03/06 09:36:21;;;;;;;17.15;10.90;;;6.80;99.90;;;;;;4993035;28;20054;-73
2021/03/06 09:38:54;;;;;;;18.33;11.98;;;6.80;99.90;;;;;;4990003;28;20069;-72
2021/03/06 09:41:22;;;;;;;20.50;12.55;;;7.00;99.90;;;;;;4992054;28;20045;-72
2021/03/06 09:43:52;;;;;;;19.63;13.25;;;7.00;99.90;;;;;;4993282;28;20030;-73
2021/03/06 09:46:22;;;;;;;19.13;11.82;;;7.00;99.90;;;;;;4992926;28;20074;-73
2021/03/06 09:48:59;;;;;;;20.20;12.93;;;6.90;99.90;;;;;;4989262;28;20034;-72
2021/03/06 09:51:44;;;;;;;17.58;12.15;;;6.90;99.90;;;;;;4991362;28;20038;-73
2021/03/06 09:54:11;;;;;;;18.08;11.63;;;6.90;99.90;;;;;;4982729;28;20044;-73
2021/03/06 09:56:47;;;;;;;17.88;12.23;;;7.10;99.90;;;;;;4991147;28;20041;-72
2021/03/06 09:59:13;;;;;;;16.35;11.30;;;7.10;99.90;;;;;;4990806;28;20048;-72
2021/03/06 10:01:39;;;;;;;16.50;10.95;;;7.00;99.90;;;;;;4992031;28;20034;-73
2021/03/06 10:04:20;;;;;;;18.50;12.30;;;7.00;99.90;;;;;;4992616;28;20497;-72
2021/03/06 10:06:52;;;;;;;20.75;12.70;;;7.00;99.90;;;;;;4990048;28;20030;-73
2021/03/06 10:09:20;;;;;;;18.90;12.65;;;7.20;99.90;;;;;;4990824;28;20058;-72
2021/03/06 10:11:48;;;;;;;20.67;12.80;;;7.00;99.90;;;;;;4993138;28;20092;-73
2021/03/06 10:14:19;;;;;;;18.48;12.68;;;7.40;99.90;;;;;;4988600;28;20077;-73
2021/03/06 10:16:51;;;;;;;22.60;14.00;;;7.30;99.90;;;;;;4991950;28;20052;-73
2021/03/06 10:19:19;;;;;;;18.52;12.57;;;7.30;99.90;;;;;;4991740;28;20046;-72
2021/03/06 10:22:04;;;;;;;18.42;12.57;;;7.30;99.90;;;;;;4988261;28;20034;-72
2021/03/06 10:24:30;;;;;;;22.48;12.82;;;7.30;99.90;;;;;;4988706;28;20037;-73
2021/03/06 10:26:58;;;;;;;15.50;10.13;;;7.50;99.90;;;;;;4989219;28;20114;-73
2021/03/06 10:29:25;;;;;;;20.98;13.57;;;7.50;99.90;;;;;;4988291;28;20474;-73
2021/03/06 10:32:00;;;;;;;18.00;12.52;;;7.50;99.90;;;;;;4989168;28;20057;-73
2021/03/06 10:34:28;;;;;;;17.30;11.38;;;7.90;99.90;;;;;;4971898;28;20069;-73
2021/03/06 10:37:09;;;;;;;23.33;12.55;;;7.70;99.90;;;;;;4987354;28;20074;-73
2021/03/06 10:39:55;;;;;;;15.38;10.80;;;7.70;99.90;;;;;;4988818;28;20034;-73
2021/03/06 10:42:22;;;;;;;16.15;10.77;;;7.70;99.90;;;;;;4988611;28;20053;-74
2021/03/06 10:44:48;;;;;;;17.45;11.90;;;7.80;99.90;;;;;;4990253;28;20448;-73
2021/03/06 10:47:15;;;;;;;18.10;11.27;;;7.80;99.90;;;;;;4987856;28;20121;-73
2021/03/06 10:49:43;;;;;;;18.15;12.15;;;7.80;99.90;;;;;;4988208;28;20098;-73
2021/03/06 10:52:24;;;;;;;15.98;11.65;;;8.10;99.90;;;;;;4987402;28;20030;-74
2021/03/06 10:54:52;;;;;;;17.42;10.95;;;8.30;99.90;;;;;;4986448;28;20034;-72
2021/03/06 10:57:17;;;;;;;16.45;11.93;;;8.00;99.90;;;;;;4990362;28;20485;-73
2021/03/06 10:59:43;;;;;;;18.05;12.45;;;8.30;99.90;;;;;;4989080;28;20081;-73
2021/03/06 11:02:32;;;;;;;19.33;12.13;;;8.50;99.90;;;;;;4986758;28;20035;-73
2021/03/06 11:05:20;;;;;;;17.20;11.13;;;8.50;99.90;;;;;;4984299;28;20030;-72
2021/03/06 11:07:46;;;;;;;17.55;11.95;;;8.60;99.90;;;;;;4983658;28;20030;-73
2021/03/06 11:10:14;;;;;;;17.13;11.88;;;8.80;99.90;;;;;;4988801;28;20034;-73
2021/03/06 11:12:50;;;;;;;19.17;12.50;;;8.80;99.90;;;;;;4988843;28;20058;-73
2021/03/06 11:15:19;;;;;;;17.35;11.98;;;8.60;99.90;;;;;;4990597;28;20796;-73
2021/03/06 11:17:54;;;;;;;17.50;12.38;;;8.90;99.90;;;;;;4984192;28;20393;-73
2021/03/06 11:20:21;;;;;;;17.73;11.68;;;8.80;99.90;;;;;;4981075;28;20036;-73
2021/03/06 11:22:47;;;;;;;17.58;11.25;;;8.70;99.90;;;;;;4989600;28;20038;-72
2021/03/06 11:25:14;;;;;;;17.05;12.00;;;8.90;99.90;;;;;;4988331;28;20034;-72
2021/03/06 11:27:44;;;;;;;18.83;12.02;;;9.00;99.90;;;;;;4986459;28;20561;-72
2021/03/06 11:30:10;;;;;;;19.63;11.02;;;9.20;99.90;;;;;;4971454;28;20590;-72
2021/03/06 11:32:36;;;;;;;18.83;11.98;;;8.80;99.90;;;;;;4988520;28;20027;-72
2021/03/06 11:35:02;;;;;;;20.48;12.48;;;8.80;99.90;;;;;;4984516;28;20516;-72
2021/03/06 11:37:27;;;;;;;18.27;10.68;;;8.90;99.90;;;;;;4989067;28;20045;-73
2021/03/06 11:39:53;;;;;;;17.75;11.48;;;9.00;99.90;;;;;;4985442;28;20041;-73
2021/03/06 11:42:18;;;;;;;15.18;11.13;;;9.00;99.90;;;;;;4989284;28;20045;-73
2021/03/06 11:44:44;;;;;;;17.23;11.02;;;9.20;99.90;;;;;;4988616;28;20070;-73
2021/03/06 11:47:10;;;;;;;17.85;11.75;;;9.10;99.90;;;;;;4987166;28;20049;-73
2021/03/06 11:49:35;;;;;;;17.40;10.95;;;9.20;99.90;;;;;;4988152;28;20027;-73
2021/03/06 11:52:01;;;;;;;20.25;11.52;;;9.10;99.90;;;;;;4989654;28;20038;-73
2021/03/06 11:54:27;;;;;;;17.65;11.70;;;9.10;99.90;;;;;;4968629;28;20389;-73
2021/03/06 11:56:52;;;;;;;20.40;11.38;;;9.00;99.90;;;;;;4980521;28;20037;-73
2021/03/06 11:59:18;;;;;;;16.85;11.00;;;9.40;99.90;;;;;;4987028;28;20081;-72
2021/03/06 12:01:43;;;;;;;17.50;11.98;;;9.10;99.90;;;;;;4987993;28;20066;-72
2021/03/06 12:04:09;;;;;;;17.98;11.15;;;9.20;99.90;;;;;;4988715;28;20581;-73
2021/03/06 12:06:35;;;;;;;19.25;12.27;;;9.10;99.90;;;;;;4984139;28;20054;-73
2021/03/06 12:09:00;;;;;;;16.65;11.38;;;9.30;99.90;;;;;;5003991;28;20085;-72
2021/03/06 12:11:26;;;;;;;17.45;11.50;;;9.40;99.90;;;;;;4971749;28;20034;-72
2021/03/06 12:13:52;;;;;;;16.92;11.38;;;9.10;99.90;;;;;;4971758;28;20026;-73
2021/03/06 12:16:17;;;;;;;18.73;10.85;;;9.20;99.90;;;;;;4987823;28;20537;-73
2021/03/06 12:18:43;;;;;;;18.88;12.18;;;9.50;99.90;;;;;;4988022;28;20869;-73
2021/03/06 12:21:08;;;;;;;15.77;11.38;;;9.30;99.90;;;;;;4988574;28;20027;-73
2021/03/06 12:23:34;;;;;;;14.85;10.07;;;9.20;99.90;;;;;;4988829;28;20129;-73
2021/03/06 12:26:00;;;;;;;21.10;11.88;;;9.30;99.90;;;;;;4988931;28;20041;-74
2021/03/06 12:28:25;;;;;;;18.15;11.13;;;9.30;99.90;;;;;;4987360;28;20085;-73
2021/03/06 12:30:51;;;;;;;14.93;11.52;;;9.30;99.90;;;;;;4988247;28;20026;-73
2021/03/06 12:33:16;;;;;;;15.45;10.45;;;9.50;99.90;;;;;;4985457;28;20034;-74
2021/03/06 12:35:42;;;;;;;17.05;12.02;;;9.40;99.90;;;;;;4982328;28;20047;-74
2021/03/06 12:38:08;;;;;;;19.15;11.82;;;9.60;99.90;;;;;;4986055;28;20042;-74
2021/03/06 12:40:33;;;;;;;17.08;11.55;;;9.60;99.90;;;;;;4986587;28;20026;-73
2021/03/06 12:42:59;;;;;;;15.43;9.77;;;9.50;99.90;;;;;;4986640;28;20499;-73
2021/03/06 12:45:25;;;;;;;16.70;10.43;;;9.40;99.90;;;;;;4986931;28;20030;-73
2021/03/06 12:47:50;;;;;;;17.25;10.98;;;9.70;99.90;;;;;;4986920;28;20038;-73